Nickerson, Nebraska
Current Conditions -  °F | °C
As of 10:35 AM on Tuesday 21 Oct 2014 (Local Time) from KFET Reporting Station
Haze Haze  
Wind Chill: 59°   Ceiling: 500
Heat Index: 59°   Visibility: 0.5mi
Dew Point: 45°   Wind: 5mph
Humidity: 59%   Direction: 130°SE
Pressure: 30.12"   Gusts: NA
Location:  41.53°N, 96.47°W
Report Text: KFET 211535Z AUTO 13004KT 1/2SM HZ VV005 15/07 A3012 RMK AO2 T01500070
Loading
Personal Weather Stations






























Interactive Weather Map
Tropical Storm Tracking
New forecast layout! Learn more

10-Day Weather Forecast

Advertisements
Track Severe Weather on mobile